Time;durP1;ratioP1;P1;durP2;ratioP2;P2;SDS_P1;SDS_P2;PMS_P1;PMS_P2;Temp;Humidity;BMP_temperature;BMP_pressure;BME280_temperature;BME280_humidity;BME280_pressure;Samples;Min_cycle;Max_cycle;Signal;HPM_P1;HPM_P2
2022/05/26 00:01:22;;;;;;;18.48;10.48;;;;;;;12.01;92.81;100130.89;1690845;84;25745;-70
2022/05/26 00:03:50;;;;;;;13.43;10.48;;;;;;;11.99;92.66;100137.98;1690859;84;25768;-70
2022/05/26 00:06:20;;;;;;;12.68;9.15;;;;;;;11.96;92.58;100130.49;1691592;84;25651;-69
2022/05/26 00:08:47;;;;;;;13.40;9.85;;;;;;;11.93;92.37;100133.27;1691738;84;25634;-69
2022/05/26 00:11:19;;;;;;;11.95;9.88;;;;;;;11.92;92.25;100129.56;1691658;84;27358;-70
2022/05/26 00:13:46;;;;;;;11.33;9.43;;;;;;;11.89;92.15;100131.52;1690900;84;25458;-69
2022/05/26 00:16:12;;;;;;;10.25;9.08;;;;;;;11.87;91.89;100135.11;1691678;84;25602;-71
2022/05/26 00:18:39;;;;;;;11.28;9.50;;;;;;;11.84;91.93;100137.11;1691665;84;25661;-70
2022/05/26 00:21:06;;;;;;;10.38;9.15;;;;;;;11.82;91.81;100137.42;1691621;84;25483;-71
2022/05/26 00:23:33;;;;;;;10.13;7.87;;;;;;;11.81;91.73;100141.23;1691608;84;27364;-70
2022/05/26 00:26:01;;;;;;;10.93;7.72;;;;;;;11.80;91.60;100142.91;1691667;84;25695;-71
2022/05/26 00:28:28;;;;;;;9.08;7.42;;;;;;;11.76;91.38;100148.18;1691641;84;25446;-70
2022/05/26 00:30:54;;;;;;;8.70;7.33;;;;;;;11.72;91.20;100140.46;1691628;84;25675;-71
2022/05/26 00:33:20;;;;;;;9.40;7.62;;;;;;;11.71;91.21;100145.63;1691636;84;25663;-70
2022/05/26 00:35:46;;;;;;;7.40;6.70;;;;;;;11.68;91.18;100147.08;1691627;84;27322;-70
2022/05/26 00:38:14;;;;;;;9.70;6.80;;;;;;;11.64;90.86;100142.61;1691481;84;25696;-69
2022/05/26 00:40:44;;;;;;;8.88;6.22;;;;;;;11.61;90.97;100148.66;1691608;84;25421;-70
2022/05/26 00:43:11;;;;;;;8.20;7.17;;;;;;;11.59;91.02;100148.45;1691733;84;25595;-70
2022/05/26 00:45:42;;;;;;;8.28;6.45;;;;;;;11.55;90.87;100147.47;1691622;84;25454;-69
2022/05/26 00:48:16;;;;;;;7.83;5.80;;;;;;;11.53;90.78;100148.35;1691630;84;27406;-70
2022/05/26 00:50:53;;;;;;;10.43;5.75;;;;;;;11.48;90.55;100148.52;1691549;84;25587;-69
2022/05/26 00:53:51;;;;;;;6.15;5.55;;;;;;;11.45;90.51;100147.79;1691576;84;25476;-69
2022/05/26 00:56:29;;;;;;;8.18;6.03;;;;;;;11.40;90.36;100148.73;1698131;84;25641;-68
2022/05/26 00:59:00;;;;;;;6.12;4.97;;;;;;;11.34;90.08;100149.20;1678857;85;25734;-69
2022/05/26 01:01:30;;;;;;;8.55;4.92;;;;;;;11.29;89.81;100148.00;1678804;85;28320;-69
2022/05/26 01:04:01;;;;;;;7.65;4.67;;;;;;;11.21;89.82;100150.95;1679321;85;25759;-68
2022/05/26 01:06:47;;;;;;;7.17;5.12;;;;;;;11.15;89.79;100151.67;1685232;85;25610;-69
2022/05/26 01:09:14;;;;;;;4.72;4.33;;;;;;;11.10;89.77;100148.30;1653510;85;26351;-68
2022/05/26 01:11:43;;;;;;;5.97;4.78;;;;;;;11.03;89.73;100140.11;1685284;85;25455;-71
2022/05/26 01:14:18;;;;;;;6.92;4.75;;;;;;;10.97;89.69;100142.70;1656290;86;27336;-69
2022/05/26 01:16:55;;;;;;;5.00;4.55;;;;;;;10.92;89.80;100145.56;1685150;85;25477;-69
2022/05/26 01:19:36;;;;;;;7.17;4.75;;;;;;;10.87;89.85;100145.70;1655760;86;25604;-69
2022/05/26 01:22:34;;;;;;;5.55;4.47;;;;;;;10.82;89.90;100151.27;1685194;85;25622;-70
2022/05/26 01:25:22;;;;;;;5.30;4.45;;;;;;;10.77;89.88;100148.70;1656093;86;25689;-70
2022/05/26 01:28:27;;;;;;;5.10;4.60;;;;;;;10.68;89.70;100148.67;1685328;84;27323;-69
2022/05/26 01:31:17;;;;;;;6.10;4.80;;;;;;;10.60;89.78;100161.05;1626577;88;25627;-67
2022/05/26 01:33:55;;;;;;;5.05;4.55;;;;;;;10.55;90.02;100159.04;1633217;85;25681;-69
2022/05/26 01:36:35;;;;;;;6.40;5.58;;;;;;;10.48;90.33;100156.78;1622252;88;25632;-69
2022/05/26 01:39:10;;;;;;;5.40;4.90;;;;;;;10.43;90.45;100156.36;1621957;88;25559;-69
2022/05/26 01:42:18;;;;;;;6.42;5.10;;;;;;;10.37;90.35;100153.56;1622309;87;27377;-69
2022/05/26 01:45:12;;;;;;;7.85;5.37;;;;;;;10.32;90.47;100160.45;1622219;88;25674;-69
2022/05/26 01:47:52;;;;;;;5.47;4.97;;;;;;;10.27;90.71;100151.09;1621940;88;25461;-69
2022/05/26 01:50:33;;;;;;;5.97;5.30;;;;;;;10.22;90.82;100149.31;1622383;88;25711;-69
2022/05/26 01:53:23;;;;;;;7.95;5.20;;;;;;;10.20;90.79;100162.34;1622124;88;25711;-70
2022/05/26 01:55:58;;;;;;;5.78;5.20;;;;;;;10.16;91.04;100157.86;1622390;88;27207;-69
2022/05/26 01:58:43;;;;;;;8.58;5.80;;;;;;;10.13;91.15;100156.59;1622277;87;25489;-70
2022/05/26 02:01:14;;;;;;;7.35;5.60;;;;;;;10.09;91.17;100159.08;1622321;88;25690;-69
2022/05/26 02:03:44;;;;;;;6.30;5.70;;;;;;;10.07;91.17;100159.16;1599969;89;25717;-70
2022/05/26 02:06:26;;;;;;;7.55;5.62;;;;;;;10.03;91.06;100158.19;1620355;86;25521;-69
2022/05/26 02:09:16;;;;;;;7.30;5.67;;;;;;;10.01;91.33;100165.78;1665324;86;28094;-68
2022/05/26 02:11:50;;;;;;;6.15;5.55;;;;;;;9.97;91.23;100166.17;1665231;86;27200;-69
2022/05/26 02:14:25;;;;;;;7.30;6.03;;;;;;;9.94;91.53;100169.48;1664669;86;25392;-68
2022/05/26 02:17:07;;;;;;;6.70;5.83;;;;;;;9.92;91.58;100164.38;1658886;86;26311;-69
2022/05/26 02:19:37;;;;;;;6.55;5.78;;;;;;;9.90;91.57;100166.03;1665253;86;25441;-70
2022/05/26 02:22:24;;;;;;;7.78;5.83;;;;;;;9.88;91.69;100157.44;1665328;86;27346;-68
2022/05/26 02:25:17;;;;;;;6.47;5.87;;;;;;;9.88;91.83;100164.77;1665247;86;25572;-69
2022/05/26 02:27:45;;;;;;;8.48;6.22;;;;;;;9.86;91.84;100167.77;1665344;86;25397;-69
2022/05/26 02:30:13;;;;;;;10.10;6.55;;;;;;;9.85;91.98;100164.02;1665273;86;25676;-70
2022/05/26 02:32:45;;;;;;;7.00;6.30;;;;;;;9.83;91.93;100172.42;1665351;86;25389;-71
2022/05/26 02:35:16;;;;;;;8.00;6.47;;;;;;;9.81;91.86;100165.75;1665337;86;27371;-71
2022/05/26 02:37:46;;;;;;;7.87;6.35;;;;;;;9.79;91.99;100168.75;1665225;86;25597;-68
2022/05/26 02:40:12;;;;;;;;;;;;;;;9.80;92.00;100176.30;1667760;86;25541;-68
2022/05/26 02:42:47;;;;;;;7.37;6.03;;;;;;;9.78;91.87;100173.89;1645839;86;25657;-69
2022/05/26 02:45:18;;;;;;;6.85;6.15;;;;;;;9.76;91.79;100172.63;1663672;86;25564;-69
2022/05/26 02:47:59;;;;;;;8.83;6.58;;;;;;;9.74;91.99;100171.58;1665411;86;28103;-69
2022/05/26 02:50:53;;;;;;;9.53;6.65;;;;;;;9.74;92.03;100174.27;1665035;86;25883;-69
2022/05/26 02:53:33;;;;;;;9.38;6.67;;;;;;;9.72;92.04;100175.93;1665313;86;25424;-68
2022/05/26 02:56:11;;;;;;;8.78;6.40;;;;;;;9.73;92.18;100172.67;1665261;86;26273;-67
2022/05/26 02:58:57;;;;;;;7.75;6.05;;;;;;;9.71;92.10;100170.27;1665381;86;25404;-70
2022/05/26 03:01:45;;;;;;;9.68;6.85;;;;;;;9.70;91.99;100170.05;1664862;86;27409;-69
2022/05/26 03:04:31;;;;;;;7.42;6.58;;;;;;;9.70;92.17;100171.92;1665484;86;25613;-69
2022/05/26 03:07:06;;;;;;;6.75;6.05;;;;;;;9.69;92.21;100170.34;1665244;86;25576;-69
2022/05/26 03:09:35;;;;;;;7.58;6.03;;;;;;;9.68;92.28;100164.12;1664379;86;25738;-68
2022/05/26 03:12:03;;;;;;;6.85;6.15;;;;;;;9.68;92.43;100164.69;1665438;86;33027;-69
2022/05/26 03:14:30;;;;;;;8.60;6.12;;;;;;;9.68;92.37;100167.39;1665260;86;27517;-71
2022/05/26 03:16:56;;;;;;;7.70;6.37;;;;;;;9.68;92.54;100161.42;1665202;86;25455;-69
2022/05/26 03:19:22;;;;;;;7.45;6.47;;;;;;;9.69;92.72;100163.59;1665255;86;25626;-69
2022/05/26 03:21:49;;;;;;;9.10;6.90;;;;;;;9.70;92.80;100164.64;1665236;86;25615;-69
2022/05/26 03:24:15;;;;;;;8.50;6.87;;;;;;;9.71;92.89;100164.87;1665265;86;25584;-71
2022/05/26 03:26:42;;;;;;;11.85;6.70;;;;;;;9.73;93.04;100166.70;1665795;86;28039;-69
2022/05/26 03:29:08;;;;;;;7.62;6.50;;;;;;;9.76;93.23;100166.66;1665851;86;25449;-69
2022/05/26 03:31:34;;;;;;;7.33;6.62;;;;;;;9.78;93.41;100171.20;1665866;86;29561;-70
2022/05/26 03:42:19;;;;;;;9.03;6.85;;;;;;;9.89;93.75;100171.21;1657808;86;25797;-69
2022/05/26 03:44:46;;;;;;;9.50;6.40;;;;;;;9.93;93.93;100175.45;1661727;86;25630;-69
2022/05/26 03:47:13;;;;;;;8.88;6.67;;;;;;;9.97;94.05;100181.81;1661710;86;25641;-69
2022/05/26 03:49:39;;;;;;;9.80;7.25;;;;;;;9.99;94.06;100179.60;1661774;86;25642;-69
2022/05/26 03:52:07;;;;;;;7.37;6.67;;;;;;;10.02;94.19;100184.95;1667082;86;27992;-69
2022/05/26 03:54:33;;;;;;;9.30;6.72;;;;;;;10.06;94.38;100177.82;1667035;85;25628;-69
2022/05/26 03:57:00;;;;;;;8.05;6.62;;;;;;;10.11;94.66;100185.80;1667009;85;25651;-68
2022/05/26 03:59:26;;;;;;;7.80;7.00;;;;;;;10.15;94.68;100180.04;1667045;86;27838;-68
2022/05/26 04:01:53;;;;;;;7.58;6.50;;;;;;;10.20;94.86;100177.74;1667113;86;25610;-69
2022/05/26 04:04:19;;;;;;;8.40;6.80;;;;;;;10.24;94.92;100184.94;1666973;85;27324;-69
2022/05/26 04:06:45;;;;;;;9.05;6.58;;;;;;;10.47;95.18;100209.26;1682430;84;33167;-70
2022/05/26 04:09:11;;;;;;;8.58;6.50;;;;;;;10.47;95.18;100209.26;1685227;85;25581;-70
2022/05/26 04:11:37;;;;;;;9.95;7.30;;;;;;;10.39;95.43;100184.34;1685252;85;26298;-70
2022/05/26 04:14:04;;;;;;;9.58;8.00;;;;;;;10.46;95.55;100191.45;1685282;85;25423;-70
2022/05/26 04:16:30;;;;;;;9.20;8.10;;;;;;;10.51;95.79;100186.47;1685279;85;28110;-69
2022/05/26 04:18:56;;;;;;;10.28;8.15;;;;;;;10.56;95.93;100187.13;1685174;85;25748;-70
2022/05/26 04:21:22;;;;;;;10.08;8.75;;;;;;;10.63;96.09;100188.83;1685298;85;30062;-70
2022/05/26 04:23:49;;;;;;;10.68;9.58;;;;;;;10.71;96.23;100186.46;1685263;85;26726;-71
2022/05/26 04:26:16;;;;;;;11.33;10.13;;;;;;;10.77;96.50;100184.66;1685334;85;25388;-70
2022/05/26 04:28:42;;;;;;;12.28;9.90;;;;;;;10.85;96.67;100189.87;1685458;85;28193;-70
2022/05/26 04:31:08;;;;;;;13.13;11.20;;;;;;;10.93;96.94;100189.11;1685254;85;27231;-70
2022/05/26 04:33:36;;;;;;;14.45;11.68;;;;;;;11.03;97.25;100195.59;1685435;85;25627;-70
2022/05/26 04:36:05;;;;;;;14.05;11.50;;;;;;;11.11;97.23;100186.45;1685404;85;26106;-70
2022/05/26 04:38:32;;;;;;;15.53;12.50;;;;;;;11.18;97.36;100183.50;1685572;85;25641;-71
2022/05/26 04:41:03;;;;;;;16.40;13.18;;;;;;;11.27;97.61;100184.90;1685424;85;28094;-71
2022/05/26 04:43:31;;;;;;;17.95;12.47;;;;;;;11.37;97.89;100187.84;1684894;85;25581;-70
2022/05/26 04:45:58;;;;;;;14.98;13.08;;;;;;;11.45;97.83;100184.92;1685410;85;25492;-70
2022/05/26 04:48:25;;;;;;;21.52;13.28;;;;;;;11.55;98.02;100181.89;1685405;85;25627;-70
2022/05/26 04:50:52;;;;;;;16.17;13.62;;;;;;;11.64;98.06;100184.04;1685471;85;25427;-69
2022/05/26 04:53:19;;;;;;;18.55;14.55;;;;;;;11.74;98.23;100176.95;1685416;85;27422;-69
2022/05/26 04:55:46;;;;;;;17.87;14.63;;;;;;;11.84;98.19;100176.40;1685307;85;25578;-70
2022/05/26 04:58:12;;;;;;;16.85;14.78;;;;;;;11.92;98.20;100179.13;1685489;85;25593;-69
2022/05/26 05:00:40;;;;;;;19.65;14.90;;;;;;;12.03;98.30;100186.93;1685328;85;25705;-70
2022/05/26 05:03:06;;;;;;;16.12;14.03;;;;;;;12.12;98.47;100181.74;1685096;85;25701;-71
2022/05/26 05:05:32;;;;;;;15.63;14.05;;;;;;;12.21;98.18;100185.78;1681131;85;27381;-71
2022/05/26 05:07:59;;;;;;;16.93;15.18;;;;;;;12.29;98.16;100179.55;1665376;86;25744;-72
2022/05/26 05:10:25;;;;;;;17.62;14.75;;;;;;;12.40;98.18;100186.77;1665481;86;25700;-71
2022/05/26 05:12:54;;;;;;;18.15;14.85;;;;;;;12.47;98.03;100183.00;1665473;86;26362;-69
2022/05/26 05:15:25;;;;;;;17.17;15.05;;;;;;;12.60;98.21;100179.03;1665552;86;25406;-70
2022/05/26 05:17:52;;;;;;;27.98;14.70;;;;;;;12.71;97.84;100177.56;1665783;86;27126;-73
2022/05/26 05:20:18;;;;;;;17.07;14.20;;;;;;;12.80;97.48;100181.59;1665779;86;25548;-74
2022/05/26 05:22:52;;;;;;;16.32;13.70;;;;;;;12.88;97.21;100176.12;1665564;86;25666;-74
2022/05/26 05:25:26;;;;;;;16.45;12.88;;;;;;;12.95;96.54;100178.89;1630850;85;26394;-74
2022/05/26 05:28:12;;;;;;;15.95;14.20;;;;;;;13.03;96.60;100182.13;1628055;88;25803;-74
2022/05/26 05:30:43;;;;;;;20.72;14.00;;;;;;;13.13;96.23;100186.37;1628103;88;28513;-72
2022/05/26 05:33:20;;;;;;;15.90;12.88;;;;;;;13.21;95.66;100186.88;1628060;88;25725;-73
2022/05/26 05:36:06;;;;;;;14.28;12.85;;;;;;;13.33;95.74;100183.48;1628182;88;25657;-73
2022/05/26 05:38:38;;;;;;;16.12;12.30;;;;;;;13.44;95.48;100187.41;1628132;88;25662;-74
2022/05/26 05:41:07;;;;;;;14.13;12.58;;;;;;;13.55;95.57;100188.63;1628186;88;25647;-73
2022/05/26 05:43:36;;;;;;;17.20;12.37;;;;;;;13.70;95.50;100191.28;1629007;88;27353;-72
2022/05/26 05:46:03;;;;;;;13.62;12.07;;;;;;;13.82;95.50;100187.83;1628845;88;25616;-73
2022/05/26 05:48:30;;;;;;;18.10;12.93;;;;;;;13.96;94.76;100192.98;1629020;88;25701;-73
2022/05/26 05:50:57;;;;;;;14.10;12.45;;;;;;;14.05;94.60;100190.98;1628974;88;25889;-72
2022/05/26 05:53:23;;;;;;;14.20;11.78;;;;;;;14.15;93.40;100204.17;1629025;88;25607;-73
2022/05/26 05:55:49;;;;;;;18.02;11.97;;;;;;;14.23;93.03;100190.23;1628993;88;27493;-73
2022/05/26 05:58:16;;;;;;;15.85;12.23;;;;;;;14.37;93.09;100198.12;1628920;88;25531;-73
2022/05/26 06:00:43;;;;;;;14.20;12.25;;;;;;;14.49;93.28;100194.05;1628975;88;25628;-73
2022/05/26 06:03:10;;;;;;;16.17;11.73;;;;;;;14.62;92.52;100192.73;1629030;88;25643;-73
2022/05/26 06:05:37;;;;;;;12.68;11.38;;;;;;;14.74;92.27;100196.83;1630000;85;25680;-73
2022/05/26 06:08:05;;;;;;;15.28;11.45;;;;;;;14.86;91.94;100195.46;1643916;86;27326;-73
2022/05/26 06:10:32;;;;;;;15.05;11.65;;;;;;;14.96;90.61;100195.58;1643809;87;25732;-75
2022/05/26 06:12:59;;;;;;;18.48;11.70;;;;;;;15.11;91.31;100197.62;1643931;87;25687;-74
2022/05/26 06:15:26;;;;;;;14.47;10.72;;;;;;;15.27;90.97;100188.20;1643844;87;25625;-75
2022/05/26 06:17:52;;;;;;;14.23;10.15;;;;;;;15.42;90.91;100195.42;1643912;87;25465;-75
2022/05/26 06:20:18;;;;;;;16.40;10.72;;;;;;;15.62;90.02;100201.86;1643876;86;27390;-75
2022/05/26 06:22:47;;;;;;;13.13;10.15;;;;;;;15.76;89.17;100195.47;1643813;87;25755;-75
2022/05/26 06:25:16;;;;;;;13.03;10.95;;;;;;;15.92;89.34;100191.45;1644070;87;25683;-75
2022/05/26 06:30:32;;;;;;;10.75;9.03;;;;;;;16.22;85.68;100184.25;1643920;87;25622;-74
2022/05/26 06:38:36;;;;;;;10.13;7.67;;;;;;;16.62;84.13;100190.94;1626787;87;25664;-75
2022/05/26 06:43:54;;;;;;;11.25;8.28;;;;;;;16.93;82.17;100179.02;1644142;87;25502;-75
2022/05/26 06:46:21;;;;;;;8.65;7.45;;;;;;;17.14;82.67;100176.76;1643869;87;27313;-76
2022/05/26 06:48:47;;;;;;;9.18;7.15;;;;;;;17.29;80.14;100179.83;1643888;87;25613;-74
2022/05/26 06:51:15;;;;;;;10.35;7.28;;;;;;;17.46;79.47;100182.14;1643893;87;25488;-76
2022/05/26 06:53:41;;;;;;;10.23;6.15;;;;;;;17.64;79.16;100177.62;1643851;87;25633;-76
2022/05/26 06:56:08;;;;;;;7.22;6.00;;;;;;;17.89;79.82;100173.49;1643928;87;25474;-75
2022/05/26 06:58:34;;;;;;;8.33;6.65;;;;;;;18.10;78.53;100175.05;1643883;86;27379;-76
2022/05/26 07:01:00;;;;;;;7.85;5.55;;;;;;;18.31;76.96;100171.11;1643958;87;25664;-77
2022/05/26 07:03:27;;;;;;;5.12;4.62;;;;;;;18.45;75.49;100163.92;1644017;87;25425;-75
2022/05/26 07:05:54;;;;;;;6.70;4.97;;;;;;;18.58;73.89;100162.38;1643732;85;25793;-75
2022/05/26 07:08:20;;;;;;;5.70;4.53;;;;;;;18.70;71.50;100168.25;1620882;87;25530;-76
2022/05/26 07:10:47;;;;;;;8.75;4.37;;;;;;;18.74;71.47;100165.76;1643887;87;27313;-76
2022/05/26 07:13:14;;;;;;;7.03;4.87;;;;;;;18.83;69.80;100160.86;1642763;87;25732;-77
2022/05/26 07:15:40;;;;;;;7.10;4.35;;;;;;;18.92;69.65;100160.59;1642207;87;25652;-77
2022/05/26 07:18:11;;;;;;;4.70;3.90;;;;;;;19.00;67.46;100160.91;1642585;87;26329;-76
2022/05/26 07:20:39;;;;;;;;;;;;;;;19.10;68.55;100158.09;1645501;87;25726;-77
2022/05/26 07:23:08;;;;;;;6.20;4.10;;;;;;;19.32;69.12;100161.14;1643171;87;27344;-76
2022/05/26 07:25:40;;;;;;;5.42;3.90;;;;;;;19.58;67.13;100169.89;1642798;86;25765;-75
2022/05/26 07:28:06;;;;;;;8.10;4.10;;;;;;;19.71;66.80;100143.79;1643727;87;25641;-77
2022/05/26 07:30:33;;;;;;;4.50;3.80;;;;;;;19.88;66.03;100164.40;1643374;87;25698;-77
2022/05/26 07:32:59;;;;;;;4.28;3.87;;;;;;;19.96;65.25;100159.20;1643153;87;25932;-76
2022/05/26 07:35:25;;;;;;;4.45;3.20;;;;;;;20.07;64.19;100159.30;1642757;87;27343;-75
2022/05/26 07:43:21;;;;;;;3.83;3.45;;;;;;;20.56;63.23;100156.62;1642990;87;25669;-74
2022/05/26 07:45:50;;;;;;;4.37;3.40;;;;;;;20.68;62.08;100140.64;1643449;87;25846;-76
2022/05/26 07:48:17;;;;;;;5.87;3.25;;;;;;;20.88;59.18;100156.30;1643896;87;27323;-76
2022/05/26 07:50:43;;;;;;;5.58;3.65;;;;;;;21.01;60.98;100147.16;1644839;87;25657;-76
2022/05/26 07:53:09;;;;;;;3.80;3.47;;;;;;;21.12;60.06;100142.31;1642931;87;25949;-75
2022/05/26 07:55:36;;;;;;;6.30;3.50;;;;;;;21.19;57.63;100139.00;1643793;87;25706;-76
2022/05/26 07:58:02;;;;;;;3.87;3.25;;;;;;;21.34;59.36;100147.34;1643857;87;25585;-76
2022/05/26 08:00:28;;;;;;;3.62;3.22;;;;;;;21.56;59.19;100143.52;1643858;87;27526;-77
2022/05/26 08:02:54;;;;;;;4.40;2.72;;;;;;;21.82;58.46;100140.27;1620792;87;25545;-75
2022/05/26 08:05:21;;;;;;;5.03;2.90;;;;;;;22.09;58.44;100145.44;1644006;87;25499;-76
2022/05/26 08:07:47;;;;;;;5.30;3.02;;;;;;;22.16;56.96;100128.32;1643907;85;25655;-76
2022/05/26 08:10:15;;;;;;;7.15;3.00;;;;;;;22.37;57.34;100139.99;1643862;87;25487;-75
2022/05/26 08:12:41;;;;;;;5.25;2.67;;;;;;;22.51;57.04;100139.20;1643097;87;27330;-75
2022/05/26 08:15:10;;;;;;;7.75;2.80;;;;;;;22.66;56.22;100134.48;1642217;87;25778;-77
2022/05/26 08:17:37;;;;;;;5.80;2.50;;;;;;;23.01;56.37;100132.83;1642522;87;26005;-76
2022/05/26 08:20:06;;;;;;;5.87;2.30;;;;;;;23.38;56.01;100133.52;1643151;87;25667;-76
2022/05/26 08:22:32;;;;;;;5.10;2.72;;;;;;;23.57;50.79;100133.05;1642729;86;25808;-75
2022/05/26 08:24:59;;;;;;;3.30;2.22;;;;;;;23.40;49.43;100137.47;1642328;87;27357;-75
2022/05/26 08:27:26;;;;;;;5.87;1.80;;;;;;;23.26;49.88;100122.36;1642717;86;25749;-76
2022/05/26 08:29:54;;;;;;;2.42;1.80;;;;;;;23.30;49.94;100135.53;1643048;86;25859;-75
2022/05/26 08:32:22;;;;;;;6.47;1.92;;;;;;;23.34;49.29;100129.39;1643315;87;25665;-75
2022/05/26 08:34:50;;;;;;;4.67;1.67;;;;;;;23.50;50.36;100123.44;1643833;87;25459;-74
2022/05/26 08:37:21;;;;;;;3.42;1.45;;;;;;;23.78;50.48;100120.33;1643392;86;28016;-74
2022/05/26 08:39:48;;;;;;;2.40;1.50;;;;;;;24.15;50.13;100129.39;1643541;87;25724;-75
2022/05/26 08:42:25;;;;;;;1.62;1.37;;;;;;;24.29;47.54;100123.56;1643587;86;25459;-74
2022/05/26 08:44:55;;;;;;;2.25;1.37;;;;;;;24.33;46.52;100124.31;1644463;87;25714;-75
2022/05/26 08:47:26;;;;;;;2.80;1.70;;;;;;;24.37;45.28;100120.34;1643599;87;25727;-74
2022/05/26 08:50:04;;;;;;;2.47;1.70;;;;;;;24.50;43.49;100118.45;1643591;86;27892;-74
2022/05/26 08:52:48;;;;;;;4.37;1.60;;;;;;;24.46;45.10;100126.00;1643226;87;25929;-75
2022/05/26 08:55:22;;;;;;;2.27;1.30;;;;;;;24.54;43.05;100122.79;1643700;87;25431;-72
2022/05/26 08:58:17;;;;;;;3.10;1.40;;;;;;;24.45;43.78;100134.89;1642739;87;26287;-71
2022/05/26 09:00:48;;;;;;;2.87;1.42;;;;;;;24.27;43.02;100129.50;1643092;87;25725;-71
2022/05/26 09:03:31;;;;;;;4.30;1.40;;;;;;;24.38;42.48;100130.21;1643429;87;27545;-73
2022/05/26 09:06:08;;;;;;;1.50;1.35;;;;;;;24.36;42.53;100140.09;1643195;87;25844;-74
2022/05/26 09:14:41;;;;;;;3.40;1.57;;;;;;;24.02;42.06;100121.39;1643173;87;25463;-74
2022/05/26 09:17:13;;;;;;;4.00;1.17;;;;;;;23.83;42.12;100113.80;1643177;87;27355;-73
2022/05/26 09:19:49;;;;;;;1.20;0.98;;;;;;;23.90;41.01;100119.88;1643301;86;25762;-74
2022/05/26 09:22:44;;;;;;;4.20;1.05;;;;;;;24.08;41.06;100128.67;1642865;86;25817;-74
2022/05/26 09:25:15;;;;;;;4.53;1.15;;;;;;;24.13;40.77;100123.48;1643473;87;25669;-68
2022/05/26 09:27:47;;;;;;;2.40;1.20;;;;;;;24.22;38.67;100130.71;1641076;87;25671;-67
2022/05/26 09:30:25;;;;;;;2.77;1.02;;;;;;;24.07;39.93;100126.48;1642078;87;27371;-65
2022/05/26 09:32:51;;;;;;;1.67;0.93;;;;;;;24.16;39.37;100126.02;1643453;87;26250;-72
2022/05/26 09:35:28;;;;;;;1.62;1.10;;;;;;;24.12;39.71;100127.43;1643422;87;25753;-73
2022/05/26 09:38:00;;;;;;;5.50;1.40;;;;;;;24.35;40.57;100128.25;1643157;87;25676;-74
2022/05/26 09:40:37;;;;;;;2.30;1.17;;;;;;;25.05;40.86;100120.92;1643356;87;25660;-74
2022/05/26 09:43:23;;;;;;;6.37;1.42;;;;;;;25.58;39.20;100121.48;1643825;86;28174;-76
2022/05/26 09:45:54;;;;;;;2.30;1.47;;;;;;;25.31;39.15;100118.84;1642081;86;26093;-72
2022/05/26 09:48:37;;;;;;;2.67;1.10;;;;;;;25.25;38.53;100114.14;1643552;87;25523;-73
2022/05/26 09:51:23;;;;;;;3.83;1.20;;;;;;;25.40;39.67;100110.64;1622867;87;26303;-74
2022/05/26 09:53:53;;;;;;;2.40;0.90;;;;;;;25.81;39.66;100123.53;1643391;87;25677;-73
2022/05/26 09:56:37;;;;;;;3.70;1.30;;;;;;;26.18;38.61;100118.45;1643564;87;27494;-72
2022/05/26 09:59:25;;;;;;;2.90;1.20;;;;;;;26.09;36.89;100114.05;1642465;87;25511;-74
2022/05/26 10:02:05;;;;;;;1.65;1.12;;;;;;;25.79;37.37;100112.09;1643642;87;25543;-75
2022/05/26 10:05:05;;;;;;;3.65;1.70;;;;;;;25.28;37.29;100112.74;1616906;88;25687;-75
2022/05/26 10:08:02;;;;;;;2.12;1.07;;;;;;;24.83;36.08;100118.37;1616850;88;25764;-74
2022/05/26 10:10:59;;;;;;;4.30;1.00;;;;;;;24.21;36.18;100111.77;1617355;88;27298;-74
2022/05/26 10:13:59;;;;;;;2.35;1.10;;;;;;;23.90;37.67;100117.12;1616619;88;25570;-72
2022/05/26 10:16:51;;;;;;;2.00;1.02;;;;;;;24.13;38.05;100117.19;1616544;88;25469;-74
2022/05/26 10:19:32;;;;;;;2.75;0.95;;;;;;;23.85;37.20;100102.36;1616752;88;25705;-73
2022/05/26 10:22:08;;;;;;;1.45;1.05;;;;;;;23.65;37.45;100106.99;1595356;88;25655;-72
2022/05/26 10:24:49;;;;;;;3.83;1.00;;;;;;;23.59;37.36;100117.47;1616435;88;27343;-75
2022/05/26 10:27:21;;;;;;;2.72;1.27;;;;;;;23.61;36.69;100106.20;1616369;88;25531;-75
2022/05/26 10:30:04;;;;;;;2.22;0.80;;;;;;;23.59;36.05;100103.07;1616363;88;25874;-74
2022/05/26 10:32:55;;;;;;;3.08;1.20;;;;;;;23.37;37.26;100102.98;1616796;88;25753;-73
2022/05/26 10:35:52;;;;;;;3.02;1.10;;;;;;;23.19;36.90;100093.39;1616727;88;25620;-73
2022/05/26 10:38:36;;;;;;;2.20;1.12;;;;;;;23.20;35.93;100106.01;1616650;88;27419;-73
2022/05/26 10:41:41;;;;;;;2.25;1.05;;;;;;;23.04;36.69;100109.20;1621089;87;25758;-73
2022/05/26 10:44:28;;;;;;;1.45;1.12;;;;;;;22.91;36.81;100101.33;1643683;87;25708;-73
2022/05/26 10:47:21;;;;;;;3.62;1.00;;;;;;;22.92;37.34;100107.65;1643460;87;25697;-74
2022/05/26 10:50:02;;;;;;;5.00;1.45;;;;;;;22.98;38.86;100108.80;1643556;87;25632;-74
2022/05/26 10:52:58;;;;;;;1.22;1.12;;;;;;;22.98;38.38;100111.55;1643684;87;27341;-74
2022/05/26 10:55:53;;;;;;;3.72;1.10;;;;;;;22.74;37.98;100105.69;1600804;89;25598;-75
2022/05/26 10:58:27;;;;;;;3.40;1.82;;;;;;;22.55;38.26;100104.75;1628173;88;25782;-74
2022/05/26 11:00:59;;;;;;;8.43;3.02;;;;;;;22.47;39.04;100110.84;1628012;87;25652;-73
2022/05/26 11:03:43;;;;;;;5.22;1.42;;;;;;;22.38;39.37;100105.73;1628209;88;25693;-74
2022/05/26 11:06:30;;;;;;;2.60;1.52;;;;;;;22.36;39.79;100108.09;1627858;87;27271;-74
2022/05/26 11:09:10;;;;;;;2.55;1.35;;;;;;;22.45;38.95;100095.30;1628046;88;25599;-74
2022/05/26 11:11:50;;;;;;;1.30;1.15;;;;;;;22.24;39.02;100102.95;1626856;87;25932;-74
2022/05/26 11:17:45;;;;;;;6.12;1.30;;;;;;;21.65;40.12;100110.12;1628162;88;25830;-77
2022/05/26 11:20:53;;;;;;;1.67;1.30;;;;;;;21.44;40.74;100095.09;1556986;90;27450;-75
2022/05/26 11:23:18;;;;;;;2.95;1.40;;;;;;;21.33;41.38;100112.73;1545284;92;25850;-70
2022/05/26 11:26:06;;;;;;;5.80;1.70;;;;;;;21.19;41.70;100105.99;1545435;92;25637;-68
2022/05/26 11:28:50;;;;;;;4.30;1.60;;;;;;;21.10;41.82;100114.41;1546078;92;25742;-76
2022/05/26 11:37:34;;;;;;;5.97;1.67;;;;;;;20.08;46.58;100106.58;1545308;92;25475;-70
2022/05/26 11:40:08;;;;;;;1.70;1.57;;;;;;;19.94;48.97;100099.78;1545397;92;25782;-72
2022/05/26 11:42:48;;;;;;;4.78;1.85;;;;;;;20.31;50.77;100109.11;1545353;92;25829;-72
2022/05/26 11:45:31;;;;;;;5.35;1.65;;;;;;;20.71;51.32;100094.53;1545610;92;25661;-72
2022/05/26 11:48:04;;;;;;;1.50;1.40;;;;;;;21.10;49.02;100086.32;1545390;92;27489;-72
2022/05/26 11:50:51;;;;;;;4.62;1.92;;;;;;;21.23;48.43;100088.13;1545302;92;25802;-71
2022/05/26 11:53:43;;;;;;;3.77;1.98;;;;;;;21.24;47.50;100092.47;1549179;90;25929;-72
2022/05/26 11:56:38;;;;;;;4.10;1.77;;;;;;;21.03;46.52;100093.95;1646532;87;25810;-72
2022/05/26 11:59:34;;;;;;;4.25;1.60;;;;;;;20.82;46.56;100089.13;1646519;87;25655;-72
2022/05/26 12:02:14;;;;;;;3.60;1.40;;;;;;;20.64;46.77;100084.09;1646466;87;28101;-73
2022/05/26 12:04:45;;;;;;;4.53;1.40;;;;;;;20.76;47.46;100085.75;1646646;87;25442;-73
2022/05/26 12:07:24;;;;;;;2.83;1.50;;;;;;;21.23;47.82;100079.88;1646283;87;25823;-73
2022/05/26 12:09:57;;;;;;;3.08;1.20;;;;;;;21.58;46.87;100083.38;1646209;87;25815;-74
2022/05/26 12:12:29;;;;;;;5.33;1.57;;;;;;;21.92;45.65;100078.92;1646312;87;25668;-75
2022/05/26 12:15:22;;;;;;;4.35;1.70;;;;;;;21.86;44.40;100074.19;1646463;87;28584;-76
2022/05/26 12:17:55;;;;;;;6.95;1.40;;;;;;;21.83;44.63;100067.52;1646360;87;25711;-74
2022/05/26 12:20:27;;;;;;;5.00;1.20;;;;;;;21.90;44.22;100076.38;1646392;87;25430;-75
2022/05/26 12:23:05;;;;;;;3.72;1.35;;;;;;;22.03;44.56;100068.52;1646057;87;25684;-74
2022/05/26 12:25:42;;;;;;;3.70;1.40;;;;;;;21.97;42.83;100079.91;1646128;87;25748;-74
2022/05/26 12:28:28;;;;;;;3.22;1.37;;;;;;;21.68;42.92;100067.30;1646031;87;27410;-73
2022/05/26 12:31:00;;;;;;;4.20;1.30;;;;;;;21.47;42.76;100079.83;1646161;87;26221;-75
2022/05/26 12:34:08;;;;;;;4.67;1.12;;;;;;;21.26;43.42;100077.14;1646380;87;25601;-74
2022/05/26 12:36:46;;;;;;;2.27;1.10;;;;;;;21.16;42.85;100071.01;1646117;87;26270;-74